This is the latest recevied weather packets stored in our database for station/object KG6QHD-13. If no packets are shown the sender has not sent any weather packets the latest 10 day(s).
| Time | Temp. | Humidity | Pressure | Rain* | Wind** | Luminosity | Snow |
|---|---|---|---|---|---|---|---|
| 1777692655 | 1.67° C | 53% | 1023.8 hPa | 0 mm | - | 0 W/m² | - |
| 1777692348 | 1.67° C | 54% | 1023.8 hPa | 0 mm | - | 0 W/m² | - |
| 1777690852 | 2.78° C | 53% | 1023.7 hPa | 0 mm | - | 0 W/m² | - |
| 1777688153 | 4.44° C | 47% | 1022.8 hPa | 0 mm | - | 0 W/m² | - |
| 1777686048 | 6.11° C | 43% | 1022.4 hPa | 0 mm | - | 9 W/m² | - |
| 1777685748 | 6.67° C | 40% | 1022.4 hPa | 0 mm | - | 11 W/m² | - |
| 1777685456 | 6.67° C | 38% | 1022.4 hPa | 0 mm | - | 14 W/m² | - |
| 1777683948 | 7.78° C | 35% | 1022.2 hPa | 0 mm | - | 25 W/m² | - |
| 1777683655 | 8.33° C | 35% | 1022.2 hPa | 0 mm | - | 26 W/m² | - |
| 1777681855 | 9.44° C | 31% | 1022 hPa | 0 mm | - | 42 W/m² | - |
| 1777681248 | 10° C | 31% | 1021.9 hPa | 0 mm | - | 72 W/m² | - |
| 1777680957 | 10° C | 31% | 1021.9 hPa | 0 mm | - | 322 W/m² | - |
| 1777676745 | 10° C | 37% | 1021.7 hPa | 0 mm | - | 255 W/m² | - |
| 1777676451 | 9.44° C | 37% | 1021.7 hPa | 0 mm | - | 311 W/m² | - |
| 1777675848 | 8.89° C | 38% | 1021.5 hPa | 0 mm | - | 192 W/m² | - |
| 1777673751 | 8.89° C | 42% | 1021.7 hPa | 0 mm | - | 236 W/m² | - |
| 1777673449 | 9.44° C | 41% | 1021.7 hPa | 0 mm | - | 199 W/m² | - |
| 1777672550 | 10° C | 38% | 1021.5 hPa | 0 mm | - | 881 W/m² | - |
| 1777671344 | 9.44° C | 40% | 1021.7 hPa | 0 mm | - | 902 W/m² | - |
| 1777670447 | 9.44° C | 45% | 1022 hPa | 0 mm | - | 909 W/m² | - |
| 1777668049 | 8.89° C | 42% | 1022.3 hPa | 0 mm | - | 418 W/m² | - |
| 1777666244 | 8.33° C | 44% | 1022.5 hPa | 0 mm | - | 1095 W/m² | - |
| 1777663855 | 7.22° C | 50% | 1022.8 hPa | 0 mm | - | 584 W/m² | - |
| 1777662644 | 6.67° C | 51% | 1022.9 hPa | 0 mm | - | 503 W/m² | - |
| 1777660259 | 6.11° C | 47% | 1023.1 hPa | 0 mm | - | 299 W/m² | - |
* Rain latest hour (hover to see other rain measurements)
** Current wind speed in m/s (hover to see current wind gust speed)